createdAt,value
2019-01-14T00:10:44.148Z,5.73
2019-01-14T00:15:48.718Z,5.64
2019-01-14T00:21:11.930Z,5.64
2019-01-14T00:26:16.228Z,5.60
2019-01-14T00:36:49.649Z,5.61
2019-01-14T00:41:53.974Z,5.53
2019-01-14T00:47:44.639Z,5.53
2019-01-14T00:52:48.913Z,5.54
2019-01-14T00:57:53.137Z,5.52
2019-01-14T01:02:57.381Z,5.41
2019-01-14T01:08:01.609Z,5.36
2019-01-14T01:13:05.863Z,5.27
2019-01-14T01:18:29.157Z,5.16
2019-01-14T01:23:33.376Z,5.08
2019-01-14T01:28:37.603Z,4.99
2019-01-14T01:34:01.211Z,4.98
2019-01-14T01:39:46.902Z,4.95
2019-01-14T01:50:13.200Z,4.92
2019-01-14T01:55:29.356Z,4.89
2019-01-14T02:11:12.880Z,4.59
2019-01-14T02:21:47.576Z,4.45
2019-01-14T02:26:51.805Z,4.45
2019-01-14T02:32:15.096Z,4.35
2019-01-14T02:37:19.315Z,4.39
2019-01-14T02:42:23.564Z,4.31
2019-01-14T02:52:56.911Z,4.24
2019-01-14T03:03:10.980Z,4.22
2019-01-14T03:08:34.597Z,4.25
2019-01-14T03:13:38.824Z,4.26
2019-01-14T03:18:43.050Z,4.35
2019-01-14T03:23:47.628Z,4.39
2019-01-14T03:28:51.880Z,4.45
2019-01-14T03:33:56.108Z,4.48
2019-01-14T03:39:00.334Z,4.51
2019-01-14T03:49:35.438Z,4.68
2019-01-14T03:54:51.699Z,4.86
2019-01-14T04:00:14.859Z,4.89
2019-01-14T04:05:19.496Z,4.88
2019-01-14T04:10:42.789Z,4.92
2019-01-14T04:20:57.482Z,4.83
2019-01-14T04:26:02.041Z,4.86
2019-01-14T04:31:25.461Z,4.87
2019-01-14T04:36:29.686Z,4.86
2019-01-14T04:41:33.916Z,4.90
2019-01-14T04:52:07.157Z,4.87
2019-01-14T04:57:30.478Z,4.86
2019-01-14T05:13:14.203Z,4.83
2019-01-14T05:18:18.437Z,4.89
2019-01-14T05:23:41.767Z,4.90
2019-01-14T05:28:46.002Z,4.94
2019-01-14T05:34:09.677Z,5.01
2019-01-14T05:39:14.036Z,4.96
2019-01-14T05:44:18.221Z,4.96
2019-01-14T05:49:22.783Z,4.94
2019-01-14T05:59:50.768Z,4.99
2019-01-14T06:05:35.265Z,4.97
2019-01-14T06:11:20.156Z,4.96
2019-01-14T06:28:11.555Z,4.99
2019-01-14T06:33:55.279Z,4.98
2019-01-14T06:57:14.817Z,4.84
2019-01-14T07:02:31.429Z,4.83
2019-01-14T07:07:47.950Z,4.82
2019-01-14T07:13:33.152Z,4.83
2019-01-14T07:19:18.336Z,4.79
2019-01-14T07:36:44.567Z,4.76
2019-01-14T07:42:15.009Z,4.74
2019-01-14T07:47:59.510Z,4.70
2019-01-14T07:59:35.011Z,4.72
2019-01-14T08:04:53.297Z,4.69
2019-01-14T08:10:10.079Z,4.71
2019-01-14T08:15:28.201Z,4.67
2019-01-14T08:20:45.067Z,4.70
2019-01-14T08:26:01.541Z,4.62
2019-01-14T08:31:19.330Z,4.37
2019-01-14T08:36:37.384Z,3.96
2019-01-14T08:41:58.829Z,3.83
2019-01-14T08:47:15.576Z,3.75
2019-01-14T08:52:33.201Z,3.65
2019-01-14T08:57:54.441Z,3.42
2019-01-14T09:08:59.929Z,3.25
2019-01-14T09:14:17.068Z,3.28
2019-01-14T09:19:35.024Z,3.24
2019-01-14T09:24:51.769Z,3.16
2019-01-14T09:30:09.307Z,3.33
2019-01-14T09:35:27.267Z,3.28
2019-01-14T09:41:11.622Z,3.25
2019-01-14T09:52:47.844Z,3.16
2019-01-14T10:04:25.500Z,3.30
2019-01-14T10:09:45.267Z,3.12
2019-01-14T10:15:02.709Z,3.05
2019-01-14T10:20:21.109Z,3.07
2019-01-14T10:25:38.406Z,3.12
2019-01-14T10:30:55.949Z,3.13
2019-01-14T10:36:15.377Z,3.56
2019-01-14T10:41:32.988Z,3.66
2019-01-14T10:47:02.244Z,3.80
2019-01-14T10:52:09.399Z,4.17
2019-01-14T10:57:18.711Z,4.25
2019-01-14T11:02:26.877Z,4.66
2019-01-14T11:07:32.893Z,4.73
2019-01-14T11:12:40.050Z,5.10
2019-01-14T11:17:48.581Z,5.19
2019-01-14T11:22:59.781Z,5.50
2019-01-14T11:28:09.538Z,5.93
2019-01-14T11:33:17.762Z,5.77
2019-01-14T11:38:44.174Z,5.69
2019-01-14T11:43:50.592Z,5.62
2019-01-14T11:48:58.219Z,5.62
2019-01-14T11:54:06.128Z,6.08
2019-01-14T11:59:12.923Z,5.85
2019-01-14T12:04:19.458Z,5.63
2019-01-14T12:09:30.020Z,5.89
2019-01-14T12:14:42.302Z,5.99
2019-01-14T12:19:50.689Z,5.41
2019-01-14T12:24:57.212Z,5.40
2019-01-14T12:30:04.440Z,5.73
2019-01-14T12:35:12.398Z,6.00
2019-01-14T12:40:24.039Z,6.27
2019-01-14T12:45:29.848Z,6.08
2019-01-14T12:50:36.739Z,5.86
2019-01-14T12:55:42.878Z,5.71
2019-01-14T13:00:49.023Z,5.48
2019-01-14T13:05:55.233Z,5.27
2019-01-14T13:11:01.614Z,5.32
2019-01-14T13:16:12.399Z,5.30
2019-01-14T13:21:19.668Z,4.98
2019-01-14T13:26:26.079Z,5.15
2019-01-14T13:31:35.820Z,5.12
2019-01-14T13:36:42.126Z,5.18
2019-01-14T13:41:51.475Z,5.07
2019-01-14T13:46:58.314Z,4.88
2019-01-14T13:52:04.649Z,4.87
2019-01-14T13:57:17.108Z,4.84
2019-01-14T14:08:12.608Z,4.85
2019-01-14T14:13:35.932Z,4.89
2019-01-14T14:24:23.079Z,5.02
2019-01-14T14:29:27.760Z,5.02
2019-01-14T14:40:01.773Z,3.91
2019-01-14T14:45:45.969Z,3.63
2019-01-14T14:50:50.245Z,3.49
2019-01-14T15:01:42.641Z,3.44
2019-01-14T15:07:05.944Z,3.46
2019-01-14T15:12:29.260Z,3.27
2019-01-14T15:17:33.865Z,2.97
2019-01-14T15:22:38.139Z,2.73
2019-01-14T15:38:22.292Z,2.38
2019-01-14T15:48:36.052Z,2.28
2019-01-14T15:53:40.291Z,2.19
2019-01-14T15:58:44.516Z,2.17
2019-01-14T16:04:07.884Z,2.11
2019-01-14T16:09:12.119Z,2.08
2019-01-14T16:14:16.346Z,1.98
2019-01-14T16:24:30.652Z,1.89
2019-01-14T16:29:34.945Z,1.86
2019-01-14T16:34:39.179Z,1.85
2019-01-14T16:39:43.719Z,1.87
2019-01-14T16:44:48.005Z,1.89
2019-01-14T16:55:02.101Z,1.87
2019-01-14T17:00:25.410Z,1.87
2019-01-14T17:05:48.707Z,1.84
2019-01-14T17:11:12.062Z,1.89
2019-01-14T17:16:35.368Z,1.92
2019-01-14T17:21:39.946Z,1.89
2019-01-14T17:26:44.272Z,1.88
2019-01-14T17:32:07.577Z,1.86
2019-01-14T17:37:11.807Z,1.82
2019-01-14T17:42:35.527Z,1.88
2019-01-14T17:47:58.841Z,1.91
2019-01-14T17:58:13.267Z,1.99
2019-01-14T18:03:17.593Z,1.93
2019-01-14T18:24:10.906Z,1.91
2019-01-14T18:29:26.702Z,1.94
2019-01-14T18:34:30.953Z,1.85
2019-01-14T18:39:35.198Z,1.89
2019-01-14T18:44:39.439Z,1.91
2019-01-14T18:49:43.670Z,1.94
2019-01-14T18:54:49.876Z,2.06
2019-01-14T19:00:13.329Z,2.14
2019-01-14T19:05:17.603Z,2.16
2019-01-14T19:10:22.336Z,2.22
2019-01-14T19:15:45.686Z,2.30
2019-01-14T19:26:51.891Z,2.28
2019-01-14T19:32:08.177Z,2.31
2019-01-14T19:37:13.046Z,2.31
2019-01-14T19:42:17.504Z,2.29
2019-01-14T19:47:23.020Z,2.29
2019-01-14T19:52:27.422Z,2.25
2019-01-14T19:57:31.753Z,2.31
2019-01-14T20:02:36.008Z,2.29
2019-01-14T20:18:38.280Z,2.34
2019-01-14T20:24:01.602Z,2.34
2019-01-14T20:29:05.896Z,2.36
2019-01-14T20:34:22.224Z,2.33
2019-01-14T20:39:26.478Z,2.35
2019-01-14T20:49:40.551Z,2.34
2019-01-14T21:00:34.209Z,2.32
2019-01-14T21:05:38.428Z,2.35
2019-01-14T21:26:33.322Z,2.40
2019-01-14T21:31:56.638Z,2.38
2019-01-14T21:37:01.025Z,2.39
2019-01-14T21:42:24.343Z,2.42
2019-01-14T21:58:47.472Z,2.43
2019-01-14T22:03:51.929Z,2.39
2019-01-14T22:09:35.599Z,2.37
2019-01-14T22:14:39.858Z,2.39
2019-01-14T22:19:45.426Z,2.39
2019-01-14T22:24:50.478Z,2.34
2019-01-14T22:30:15.924Z,2.36
2019-01-14T22:35:39.262Z,2.37
2019-01-14T22:40:54.949Z,2.36
2019-01-14T22:51:49.743Z,2.41
2019-01-14T22:57:13.055Z,2.39
2019-01-14T23:17:47.533Z,2.45
2019-01-14T23:22:52.412Z,2.47
2019-01-14T23:28:15.729Z,2.47
2019-01-14T23:33:19.982Z,2.54
2019-01-14T23:38:43.383Z,2.52
2019-01-14T23:48:57.452Z,2.48
2019-01-14T23:54:20.754Z,2.41
2019-01-14T23:59:25.012Z,2.45
